createdAt,value
2022-12-10T00:02:24.129Z,21.87
2022-12-10T00:05:12.478Z,17.40
2022-12-10T00:07:58.945Z,19.63
2022-12-10T00:10:45.300Z,22.10
2022-12-10T00:13:31.767Z,21.50
2022-12-10T00:16:20.082Z,18.20
2022-12-10T00:19:07.184Z,21.67
2022-12-10T00:21:55.287Z,17.47
2022-12-10T00:24:42.465Z,22.57
2022-12-10T00:27:29.030Z,22.03
2022-12-10T00:30:15.586Z,25.77
2022-12-10T00:33:02.033Z,26.23
2022-12-10T00:35:48.645Z,25.53
2022-12-10T00:38:37.284Z,24.13
2022-12-10T00:41:23.902Z,25.17
2022-12-10T00:44:10.725Z,24.20
2022-12-10T00:46:57.338Z,21.03
2022-12-10T00:49:43.896Z,23.53
2022-12-10T00:52:30.202Z,23.17
2022-12-10T00:55:18.240Z,21.10
2022-12-10T00:58:04.659Z,22.73
2022-12-10T01:00:51.501Z,23.03
2022-12-10T01:03:38.730Z,23.53
2022-12-10T01:06:27.742Z,29.77
2022-12-10T01:09:17.844Z,27.77
2022-12-10T01:12:06.842Z,25.60
2022-12-10T01:14:53.250Z,26.13
2022-12-10T01:17:39.894Z,26.40
2022-12-10T01:20:26.281Z,28.07
2022-12-10T01:23:12.673Z,26.10
2022-12-10T01:26:02.722Z,27.10
2022-12-10T01:28:51.390Z,30.93
2022-12-10T01:31:39.353Z,24.93
2022-12-10T01:34:26.414Z,30.93
2022-12-10T01:37:13.156Z,30.57
2022-12-10T01:39:59.546Z,35.60
2022-12-10T01:42:45.908Z,38.23
2022-12-10T01:45:33.849Z,32.50
2022-12-10T01:48:21.070Z,30.37
2022-12-10T01:51:08.133Z,32.00
2022-12-10T01:53:55.038Z,37.53
2022-12-10T01:56:45.565Z,29.77
2022-12-10T01:59:32.915Z,31.63
2022-12-10T02:02:44.066Z,33.60
2022-12-10T02:05:37.566Z,35.43
2022-12-10T02:08:29.674Z,34.00
2022-12-10T02:11:23.223Z,37.17
2022-12-10T02:14:17.215Z,33.20
2022-12-10T02:17:11.879Z,35.97
2022-12-10T02:20:14.060Z,36.77
2022-12-10T02:23:04.869Z,32.07
2022-12-10T02:26:00.373Z,31.80
2022-12-10T02:28:53.543Z,32.93
2022-12-10T02:31:45.913Z,41.00
2022-12-10T02:34:37.694Z,38.47
2022-12-10T02:37:29.146Z,36.10
2022-12-10T02:40:20.394Z,41.60
2022-12-10T02:43:08.403Z,34.57
2022-12-10T02:45:57.278Z,33.90
2022-12-10T02:48:47.650Z,34.47
2022-12-10T02:51:34.582Z,36.33
2022-12-10T02:54:42.587Z,32.03
2022-12-10T02:57:39.045Z,31.93
2022-12-10T03:00:26.887Z,32.80
2022-12-10T03:03:25.255Z,31.83
2022-12-10T03:06:18.841Z,39.63
2022-12-10T03:09:09.053Z,35.83
2022-12-10T03:12:01.222Z,39.97
2022-12-10T03:14:48.046Z,34.30
2022-12-10T03:17:34.856Z,36.67
2022-12-10T03:20:22.362Z,38.67
2022-12-10T03:23:14.361Z,34.20
2022-12-10T03:26:01.909Z,39.13
2022-12-10T03:28:52.442Z,39.27
2022-12-10T03:31:41.419Z,33.23
2022-12-10T03:34:28.233Z,37.43
2022-12-10T03:37:15.952Z,35.90
2022-12-10T03:40:05.739Z,34.03
2022-12-10T03:42:53.130Z,36.73
2022-12-10T03:45:41.056Z,34.90
2022-12-10T03:48:27.685Z,36.60
2022-12-10T03:51:14.259Z,37.80
2022-12-10T03:54:00.747Z,43.10
2022-12-10T03:56:48.939Z,47.00
2022-12-10T03:59:35.337Z,41.67
2022-12-10T04:02:21.823Z,38.23
2022-12-10T04:05:09.232Z,41.47
2022-12-10T04:07:55.762Z,41.57
2022-12-10T04:10:42.797Z,42.57
2022-12-10T04:13:50.324Z,44.23
2022-12-10T04:16:37.728Z,40.10
2022-12-10T04:19:24.814Z,40.40
2022-12-10T04:22:29.555Z,42.37
2022-12-10T04:25:41.876Z,43.70
2022-12-10T04:28:29.868Z,46.93
2022-12-10T04:31:16.369Z,46.77
2022-12-10T04:34:02.825Z,44.07
2022-12-10T04:36:49.874Z,46.53
2022-12-10T04:39:36.551Z,41.63
2022-12-10T04:42:24.140Z,46.53
2022-12-10T04:45:12.465Z,35.47
2022-12-10T04:47:58.799Z,42.47
2022-12-10T04:50:45.177Z,49.73
2022-12-10T04:53:31.792Z,43.03
2022-12-10T04:56:18.329Z,48.20
2022-12-10T04:59:06.642Z,44.77
2022-12-10T05:01:54.670Z,47.73
2022-12-10T05:04:41.366Z,48.37
2022-12-10T05:07:27.797Z,42.77
2022-12-10T05:10:14.402Z,55.42
2022-12-10T05:13:00.648Z,47.33
2022-12-10T05:15:47.088Z,48.03
2022-12-10T05:18:35.285Z,45.33
2022-12-10T05:21:23.320Z,43.77
2022-12-10T05:24:09.111Z,43.10
2022-12-10T05:26:55.911Z,44.33
2022-12-10T05:29:42.318Z,48.67
2022-12-10T05:32:28.846Z,49.03
2022-12-10T05:35:16.914Z,41.63
2022-12-10T05:38:03.721Z,43.53
2022-12-10T05:40:55.422Z,41.63
2022-12-10T05:43:43.536Z,46.00
2022-12-10T05:46:32.441Z,44.90
2022-12-10T05:49:19.328Z,38.93
2022-12-10T05:52:07.466Z,49.10
2022-12-10T05:54:54.176Z,41.33
2022-12-10T05:57:40.819Z,47.20
2022-12-10T06:00:28.125Z,43.30
2022-12-10T06:03:14.580Z,45.37
2022-12-10T06:06:01.538Z,47.30
2022-12-10T06:08:49.447Z,50.80
2022-12-10T06:11:36.261Z,54.23
2022-12-10T06:14:23.071Z,42.90
2022-12-10T06:17:09.549Z,43.27
2022-12-10T06:19:55.872Z,45.40
2022-12-10T06:22:42.310Z,52.00
2022-12-10T06:25:30.377Z,44.60
2022-12-10T06:28:17.263Z,44.87
2022-12-10T06:31:03.747Z,51.67
2022-12-10T06:33:50.911Z,46.23
2022-12-10T06:36:37.465Z,39.43
2022-12-10T06:39:24.274Z,50.23
2022-12-10T06:42:12.238Z,51.23
2022-12-10T06:44:59.050Z,44.67
2022-12-10T06:47:45.626Z,51.27
2022-12-10T06:50:32.518Z,51.37
2022-12-10T06:53:19.143Z,49.87
2022-12-10T06:56:07.010Z,47.57
2022-12-10T06:58:54.903Z,52.40
2022-12-10T07:01:42.062Z,49.00
2022-12-10T07:04:28.665Z,46.03
2022-12-10T07:07:15.231Z,49.27
2022-12-10T07:10:01.942Z,50.70
2022-12-10T07:12:48.352Z,53.33
2022-12-10T07:15:36.232Z,49.53
2022-12-10T07:18:23.038Z,56.17
2022-12-10T07:21:16.454Z,47.73
2022-12-10T07:24:04.640Z,51.70
2022-12-10T07:26:51.270Z,46.93
2022-12-10T07:29:38.117Z,46.73
2022-12-10T07:32:26.198Z,49.57
2022-12-10T07:35:12.755Z,50.03
2022-12-10T07:37:59.683Z,47.87
2022-12-10T07:40:46.131Z,50.30
2022-12-10T07:43:32.590Z,59.73
2022-12-10T07:46:21.229Z,53.07
2022-12-10T07:49:09.225Z,49.53
2022-12-10T07:51:56.090Z,52.17
2022-12-10T07:54:42.530Z,54.03
2022-12-10T07:57:30.833Z,55.97
2022-12-10T08:00:18.182Z,62.23
2022-12-10T08:03:05.149Z,51.77
2022-12-10T08:06:02.913Z,55.83
2022-12-10T08:08:50.404Z,51.37
2022-12-10T08:11:37.115Z,53.53
2022-12-10T08:14:23.605Z,45.17
2022-12-10T08:17:10.274Z,48.50
2022-12-10T08:19:56.745Z,57.37
2022-12-10T08:22:44.581Z,51.33
2022-12-10T08:25:33.788Z,48.87
2022-12-10T08:28:24.106Z,57.47
2022-12-10T08:31:12.875Z,46.37
2022-12-10T08:33:59.574Z,48.43
2022-12-10T08:36:47.221Z,45.20
2022-12-10T08:39:35.382Z,45.23
2022-12-10T08:42:22.027Z,40.47
2022-12-10T08:45:09.126Z,45.03
2022-12-10T08:47:55.677Z,41.07
2022-12-10T08:50:42.158Z,45.07
2022-12-10T08:53:28.580Z,46.37
2022-12-10T08:56:16.528Z,46.70
2022-12-10T08:59:03.355Z,47.43
2022-12-10T09:01:53.700Z,46.47
2022-12-10T09:04:43.631Z,43.17
2022-12-10T09:07:30.510Z,47.43
2022-12-10T09:10:17.522Z,49.17
2022-12-10T09:13:05.706Z,49.27
2022-12-10T09:15:53.647Z,37.97
2022-12-10T09:18:40.631Z,38.27
2022-12-10T09:21:27.535Z,40.80
2022-12-10T09:24:14.546Z,40.43
2022-12-10T09:27:02.318Z,40.57
2022-12-10T09:29:50.671Z,46.20
2022-12-10T09:32:37.536Z,39.10
2022-12-10T09:35:24.300Z,43.03
2022-12-10T09:38:11.437Z,45.73
2022-12-10T09:41:02.730Z,37.33
2022-12-10T09:43:53.550Z,43.13
2022-12-10T09:46:51.044Z,40.33
2022-12-10T09:49:47.709Z,39.13
2022-12-10T09:52:38.638Z,40.80
2022-12-10T09:55:30.069Z,39.93
2022-12-10T09:58:23.906Z,36.73
2022-12-10T10:01:18.418Z,31.83
2022-12-10T10:04:07.150Z,30.07
2022-12-10T10:06:54.212Z,28.37
2022-12-10T10:09:42.797Z,31.77
2022-12-10T10:12:30.482Z,33.67
2022-12-10T10:15:20.487Z,31.50
2022-12-10T10:18:15.477Z,35.70
2022-12-10T10:21:03.577Z,32.03
2022-12-10T10:23:50.777Z,31.80
2022-12-10T10:26:37.861Z,31.23
2022-12-10T10:29:27.401Z,30.37
2022-12-10T10:32:18.215Z,28.90
2022-12-10T10:35:06.679Z,31.90
2022-12-10T10:37:59.308Z,32.10
2022-12-10T10:40:48.347Z,29.87
2022-12-10T10:43:42.308Z,31.90
2022-12-10T10:46:29.776Z,27.43
2022-12-10T10:49:28.576Z,29.80
2022-12-10T10:52:18.584Z,32.50
2022-12-10T10:55:08.434Z,30.00
2022-12-10T10:57:55.268Z,30.03
2022-12-10T11:00:42.040Z,29.33
2022-12-10T11:03:30.851Z,29.10
2022-12-10T11:06:19.049Z,31.17
2022-12-10T11:09:07.395Z,29.97
2022-12-10T11:12:01.750Z,27.90
2022-12-10T11:14:48.400Z,25.67
2022-12-10T11:17:35.331Z,29.50
2022-12-10T11:20:24.843Z,30.03
2022-12-10T11:23:16.343Z,25.97
2022-12-10T11:26:18.631Z,25.83
2022-12-10T11:29:26.382Z,30.17
2022-12-10T11:32:28.575Z,30.40
2022-12-10T11:35:18.709Z,27.20
2022-12-10T11:38:13.476Z,24.37
2022-12-10T11:41:08.030Z,26.77
2022-12-10T11:44:15.392Z,25.40
2022-12-10T11:47:25.554Z,25.03
2022-12-10T11:50:21.587Z,24.97
2022-12-10T11:53:41.958Z,22.53
2022-12-10T11:56:32.696Z,23.73
2022-12-10T11:59:52.928Z,26.80
2022-12-10T12:03:03.209Z,27.37
2022-12-10T12:06:08.636Z,22.00
2022-12-10T12:09:02.196Z,25.50
2022-12-10T12:12:07.447Z,25.43
2022-12-10T12:15:00.227Z,24.87
2022-12-10T12:17:50.734Z,26.37
2022-12-10T12:20:43.625Z,25.87
2022-12-10T12:23:35.532Z,30.20
2022-12-10T12:26:28.098Z,27.63
2022-12-10T12:29:19.954Z,23.47
2022-12-10T12:32:15.454Z,24.50
2022-12-10T12:35:06.506Z,21.67
2022-12-10T12:37:59.484Z,20.33
2022-12-10T12:40:53.654Z,24.97
2022-12-10T12:43:49.781Z,22.23
2022-12-10T12:46:41.499Z,27.17
2022-12-10T12:49:32.550Z,27.00
2022-12-10T12:52:33.402Z,25.90
2022-12-10T12:55:26.137Z,24.77
2022-12-10T12:58:28.827Z,22.47
2022-12-10T13:01:25.233Z,21.83
2022-12-10T13:04:13.263Z,23.40
2022-12-10T13:07:29.807Z,25.27
2022-12-10T13:10:27.829Z,22.13
2022-12-10T13:13:27.521Z,22.93
2022-12-10T13:16:36.874Z,19.03
2022-12-10T13:19:32.738Z,24.43
2022-12-10T13:22:52.215Z,25.60
2022-12-10T13:25:57.475Z,26.40
2022-12-10T13:28:52.452Z,23.17
2022-12-10T13:31:40.246Z,26.13
2022-12-10T13:34:38.049Z,26.33
2022-12-10T13:37:33.188Z,27.60
2022-12-10T13:40:27.464Z,21.57
2022-12-10T13:43:46.013Z,26.53
2022-12-10T13:46:35.684Z,29.80
2022-12-10T13:49:24.371Z,22.50
2022-12-10T13:52:21.066Z,22.13
2022-12-10T13:55:24.945Z,22.37
2022-12-10T13:58:36.397Z,21.10
2022-12-10T14:01:38.141Z,23.97
2022-12-10T14:04:46.031Z,19.27
2022-12-10T14:07:33.756Z,23.73
2022-12-10T14:10:25.321Z,23.03
2022-12-10T14:13:16.121Z,19.30
2022-12-10T14:16:07.580Z,21.30
2022-12-10T14:18:57.846Z,20.63
2022-12-10T14:21:47.044Z,21.07
2022-12-10T14:24:37.860Z,19.83
2022-12-10T14:27:28.031Z,21.00
2022-12-10T14:30:19.946Z,18.03
2022-12-10T14:33:07.786Z,17.87
2022-12-10T14:35:55.241Z,20.63
2022-12-10T14:38:41.845Z,23.23
2022-12-10T14:41:37.511Z,25.33
2022-12-10T14:44:28.490Z,22.00
2022-12-10T14:47:17.663Z,22.17
2022-12-10T14:50:12.233Z,21.47
2022-12-10T14:52:58.641Z,21.37
2022-12-10T14:55:47.280Z,20.87
2022-12-10T14:58:42.245Z,20.40
2022-12-10T15:01:31.516Z,22.30
2022-12-10T15:04:26.254Z,21.83
2022-12-10T15:07:19.193Z,24.37
2022-12-10T15:10:14.965Z,19.53
2022-12-10T15:13:02.702Z,20.57
2022-12-10T15:15:52.195Z,21.13
2022-12-10T15:18:40.256Z,22.47
2022-12-10T15:21:27.441Z,23.57
2022-12-10T15:24:22.932Z,22.87
2022-12-10T15:27:18.461Z,23.60
2022-12-10T15:30:25.207Z,23.73
2022-12-10T15:33:27.797Z,24.17
2022-12-10T15:36:21.265Z,21.50
2022-12-10T15:39:17.697Z,24.00
2022-12-10T15:42:08.181Z,21.40
2022-12-10T15:44:58.710Z,22.07
2022-12-10T15:47:45.404Z,22.90
2022-12-10T15:50:32.195Z,24.37
2022-12-10T15:53:32.083Z,20.33
2022-12-10T15:56:21.733Z,21.73
2022-12-10T15:59:10.861Z,23.57
2022-12-10T16:01:58.178Z,23.67
2022-12-10T16:04:44.495Z,26.73
2022-12-10T16:07:30.897Z,24.67
2022-12-10T16:10:19.631Z,23.67
2022-12-10T16:13:08.765Z,21.53
2022-12-10T16:16:00.283Z,21.00
2022-12-10T16:18:47.993Z,21.60
2022-12-10T16:21:34.697Z,19.73
2022-12-10T16:24:21.331Z,20.10
2022-12-10T16:27:13.991Z,23.20
2022-12-10T16:30:01.370Z,19.67
2022-12-10T16:32:49.686Z,23.53
2022-12-10T16:35:36.176Z,27.47
2022-12-10T16:38:23.093Z,23.70
2022-12-10T16:41:20.096Z,26.00
2022-12-10T16:44:06.519Z,22.33
2022-12-10T16:46:53.677Z,20.40
2022-12-10T16:49:41.518Z,22.23
2022-12-10T16:52:28.167Z,18.40
2022-12-10T16:55:16.227Z,22.77
2022-12-10T16:58:03.025Z,21.67
2022-12-10T17:00:52.535Z,20.70
2022-12-10T17:03:39.182Z,23.10
2022-12-10T17:06:28.407Z,21.97
2022-12-10T17:09:14.875Z,20.47
2022-12-10T17:12:01.447Z,19.63
2022-12-10T17:14:47.932Z,22.00
2022-12-10T17:17:35.050Z,22.17
2022-12-10T17:20:22.141Z,22.17
2022-12-10T17:23:09.947Z,24.33
2022-12-10T17:25:58.385Z,22.73
2022-12-10T17:28:44.919Z,21.07
2022-12-10T17:31:31.452Z,24.33
2022-12-10T17:34:18.353Z,22.23
2022-12-10T17:37:11.438Z,22.07
2022-12-10T17:39:59.652Z,22.20
2022-12-10T17:42:46.835Z,21.63
2022-12-10T17:45:33.402Z,21.07
2022-12-10T17:48:20.427Z,20.87
2022-12-10T17:51:07.288Z,21.07
2022-12-10T17:53:53.915Z,19.73
2022-12-10T17:56:43.980Z,21.07
2022-12-10T17:59:32.986Z,23.97
2022-12-10T18:02:19.765Z,23.07
2022-12-10T18:05:06.757Z,22.23
2022-12-10T18:07:53.186Z,24.57
2022-12-10T18:10:41.031Z,23.23
2022-12-10T18:13:29.244Z,20.43
2022-12-10T18:16:18.199Z,21.40
2022-12-10T18:19:09.337Z,20.63
2022-12-10T18:21:55.952Z,24.37
2022-12-10T18:24:42.804Z,23.97
2022-12-10T18:27:29.179Z,23.60
2022-12-10T18:30:19.198Z,24.63
2022-12-10T18:33:05.797Z,21.83
2022-12-10T18:35:52.714Z,22.10
2022-12-10T18:38:39.551Z,21.63
2022-12-10T18:41:26.741Z,19.40
2022-12-10T18:44:14.186Z,22.57
2022-12-10T18:47:02.260Z,22.80
2022-12-10T18:49:49.036Z,22.87
2022-12-10T18:52:35.496Z,21.23
2022-12-10T18:55:24.014Z,22.70
2022-12-10T18:58:11.136Z,24.23
2022-12-10T19:00:58.012Z,23.77
2022-12-10T19:03:48.763Z,28.10
2022-12-10T19:06:36.968Z,35.13
2022-12-10T19:09:23.402Z,28.10
2022-12-10T19:12:11.182Z,27.57
2022-12-10T19:14:58.023Z,24.97
2022-12-10T19:17:44.918Z,22.33
2022-12-10T19:20:33.534Z,21.20
2022-12-10T19:23:20.189Z,23.53
2022-12-10T19:26:25.962Z,22.43
2022-12-10T19:29:15.613Z,22.10
2022-12-10T19:32:02.062Z,18.63
2022-12-10T19:34:48.471Z,23.80
2022-12-10T19:37:36.362Z,23.63
2022-12-10T19:40:24.943Z,23.20
2022-12-10T19:43:14.407Z,23.97
2022-12-10T19:46:01.326Z,23.33
2022-12-10T19:48:48.786Z,26.57
2022-12-10T19:51:35.317Z,24.83
2022-12-10T19:54:23.125Z,24.90
2022-12-10T19:57:12.483Z,25.40
2022-12-10T19:59:59.040Z,25.70
2022-12-10T20:02:45.705Z,22.97
2022-12-10T20:05:32.429Z,25.53
2022-12-10T20:08:19.071Z,22.30
2022-12-10T20:11:07.312Z,23.20
2022-12-10T20:13:54.078Z,21.77
2022-12-10T20:16:41.546Z,23.23
2022-12-10T20:19:28.286Z,25.87
2022-12-10T20:22:14.737Z,20.97
2022-12-10T20:25:01.322Z,24.30
2022-12-10T20:27:49.283Z,24.17
2022-12-10T20:30:36.757Z,24.17
2022-12-10T20:33:45.223Z,24.37
2022-12-10T20:36:30.149Z,21.00
2022-12-10T20:39:19.689Z,21.77
2022-12-10T20:42:06.254Z,24.33
2022-12-10T20:44:54.553Z,23.70
2022-12-10T20:47:41.382Z,19.33
2022-12-10T20:50:28.128Z,24.03
2022-12-10T20:53:15.147Z,23.53
2022-12-10T20:56:02.532Z,24.40
2022-12-10T20:58:50.813Z,24.33
2022-12-10T21:01:38.921Z,24.10
2022-12-10T21:04:26.646Z,25.70
2022-12-10T21:07:15.125Z,21.97
2022-12-10T21:10:01.695Z,26.37
2022-12-10T21:12:48.022Z,24.67
2022-12-10T21:15:35.326Z,23.47
2022-12-10T21:18:24.256Z,22.17
2022-12-10T21:21:14.075Z,23.83
2022-12-10T21:24:00.714Z,22.63
2022-12-10T21:26:47.611Z,22.67
2022-12-10T21:29:34.172Z,21.27
2022-12-10T21:32:20.502Z,24.17
2022-12-10T21:35:09.347Z,20.63
2022-12-10T21:37:56.066Z,22.37
2022-12-10T21:40:44.316Z,22.63
2022-12-10T21:43:30.127Z,24.23
2022-12-10T21:46:16.669Z,23.53
2022-12-10T21:49:03.984Z,22.30
2022-12-10T21:51:51.963Z,24.00
2022-12-10T21:54:38.716Z,22.37
2022-12-10T21:57:25.244Z,22.27
2022-12-10T22:00:13.599Z,24.00
2022-12-10T22:03:00.225Z,23.67
2022-12-10T22:05:47.132Z,22.60
2022-12-10T22:08:35.837Z,19.90
2022-12-10T22:11:22.556Z,21.50
2022-12-10T22:14:09.403Z,19.83
2022-12-10T22:16:56.088Z,22.13
2022-12-10T22:19:43.214Z,22.70
2022-12-10T22:22:29.982Z,22.27
2022-12-10T22:25:17.886Z,21.90
2022-12-10T22:28:04.878Z,20.80
2022-12-10T22:30:51.330Z,23.03
2022-12-10T22:33:38.519Z,22.27
2022-12-10T22:36:25.513Z,20.57
2022-12-10T22:39:12.120Z,23.60
2022-12-10T22:42:00.124Z,21.27
2022-12-10T22:44:46.859Z,22.33
2022-12-10T22:47:33.202Z,22.30
2022-12-10T22:50:19.901Z,25.17
2022-12-10T22:53:06.718Z,21.43
2022-12-10T22:55:59.011Z,24.13
2022-12-10T22:58:47.032Z,22.13
2022-12-10T23:01:33.999Z,23.13
2022-12-10T23:04:20.852Z,23.57
2022-12-10T23:07:08.607Z,23.00
2022-12-10T23:09:55.091Z,23.40
2022-12-10T23:12:59.446Z,21.50
2022-12-10T23:15:48.321Z,21.33
2022-12-10T23:18:35.206Z,20.70
2022-12-10T23:21:24.050Z,21.40
2022-12-10T23:24:11.160Z,23.77
2022-12-10T23:26:57.671Z,20.00
2022-12-10T23:29:44.627Z,20.07
2022-12-10T23:32:32.632Z,19.93
2022-12-10T23:35:19.772Z,22.90
2022-12-10T23:38:06.559Z,23.20
2022-12-10T23:40:53.160Z,22.27
2022-12-10T23:43:40.017Z,19.97
2022-12-10T23:46:26.582Z,22.17
2022-12-10T23:49:14.823Z,21.20
2022-12-10T23:52:07.771Z,22.17
2022-12-10T23:54:56.329Z,21.73
2022-12-10T23:57:42.928Z,19.47
